Terminal Aerodrome Forecast
Issued by NWS

Home | Current Version | Previous Version | Text Only | Print | Product List | Glossary Off
Versions: 1 2 3 4 5 6 7 8 9 10 11 12 13 14 15 16 17 18 19 20 21 22 23 24

000
FTUS43 KABR 221600 AAB
TAFATY
TAF AMD
KATY 221618Z 2216/2312 17009KT 4SM BR SKC
      TEMPO 2216/2217 1SM BR BKN002
     FM221800 18009KT P6SM BKN250
     FM230800 26007KT P6SM OVC100=

USA.gov is the U.S. government's official web portal to all federal, state and local government web resources and services.